createdAt,value
2018-06-13T00:00:24.264Z,3.24
2018-06-13T00:01:24.263Z,2.86
2018-06-13T00:02:24.249Z,3.05
2018-06-13T00:03:24.242Z,2.76
2018-06-13T00:04:24.237Z,2.48
2018-06-13T00:05:24.230Z,2.48
2018-06-13T00:06:23.965Z,2.58
2018-06-13T00:07:23.958Z,2.95
2018-06-13T00:08:23.951Z,2.95
2018-06-13T00:09:23.946Z,3.43
2018-06-13T00:10:24.195Z,4.19
2018-06-13T00:11:24.234Z,5.05
2018-06-13T00:12:24.183Z,6.68
2018-06-13T00:13:23.916Z,7.63
2018-06-13T00:14:23.911Z,8.2
2018-06-13T00:15:23.902Z,7.92
2018-06-13T00:16:24.273Z,7.44
2018-06-13T00:17:24.147Z,6.49
2018-06-13T00:18:24.240Z,5.24
2018-06-13T00:19:24.137Z,4.77
2018-06-13T00:20:24.128Z,4
2018-06-13T00:21:23.863Z,4.48
2018-06-13T00:22:24.110Z,4.96
2018-06-13T00:23:24.103Z,5.63
2018-06-13T00:24:24.103Z,5.91
2018-06-13T00:25:24.097Z,5.91
2018-06-13T00:26:24.088Z,5.91
2018-06-13T00:27:24.080Z,5.91
2018-06-13T00:28:24.113Z,6.2
2018-06-13T00:29:24.067Z,6.2
2018-06-13T00:30:23.803Z,6.58
2018-06-13T00:31:24.050Z,6.58
2018-06-13T00:32:24.043Z,6.1
2018-06-13T00:33:24.037Z,5.91
2018-06-13T00:34:24.029Z,5.62
2018-06-13T00:35:24.019Z,5.34
2018-06-13T00:36:24.015Z,5.05
2018-06-13T00:37:24.007Z,5.05
2018-06-13T00:38:24.006Z,5.24
2018-06-13T00:39:23.994Z,5.34
2018-06-13T00:40:23.990Z,4.96
2018-06-13T00:41:23.978Z,5.15
2018-06-13T00:42:23.978Z,5.15
2018-06-13T00:43:23.965Z,4.68
2018-06-13T00:44:23.958Z,4.77
2018-06-13T00:45:23.693Z,4.29
2018-06-13T00:46:23.943Z,4.1
2018-06-13T00:47:23.937Z,3.91
2018-06-13T00:48:23.927Z,3.33
2018-06-13T00:49:23.926Z,3.62
2018-06-13T00:50:23.658Z,3.91
2018-06-13T00:51:23.909Z,3.81
2018-06-13T00:52:23.905Z,4
2018-06-13T00:53:23.904Z,3.72
2018-06-13T00:54:23.886Z,3.24
2018-06-13T00:55:23.880Z,3.33
2018-06-13T00:56:23.617Z,2.76
2018-06-13T00:57:23.865Z,2.48
2018-06-13T00:58:23.601Z,2.95
2018-06-13T00:59:23.859Z,3.33
2018-06-13T01:00:23.588Z,3.91
2018-06-13T01:01:23.838Z,4.19
2018-06-13T01:02:23.572Z,4.1
2018-06-13T01:03:23.828Z,4.58
2018-06-13T01:04:23.562Z,4.58
2018-06-13T01:05:23.811Z,4.96
2018-06-13T01:06:23.550Z,5.05
2018-06-13T01:07:23.539Z,5.34
2018-06-13T01:08:23.792Z,5.53
2018-06-13T01:09:23.782Z,5.72
2018-06-13T01:10:23.778Z,5.62
2018-06-13T01:11:23.773Z,5.62
2018-06-13T01:12:23.766Z,5.05
2018-06-13T01:13:23.753Z,4.96
2018-06-13T01:14:23.749Z,4.77
2018-06-13T01:15:23.483Z,4.48
2018-06-13T01:16:23.737Z,4.19
2018-06-13T01:17:23.733Z,4.1
2018-06-13T01:18:23.721Z,3.81
2018-06-13T01:19:23.454Z,3.43
2018-06-13T01:20:23.709Z,3.43
2018-06-13T01:21:23.700Z,3.91
2018-06-13T01:22:23.696Z,3.62
2018-06-13T01:23:23.685Z,3.53
2018-06-13T01:24:23.678Z,3.81
2018-06-13T01:25:23.673Z,4.67
2018-06-13T01:26:23.412Z,5.53
2018-06-13T01:27:23.656Z,6.29
2018-06-13T01:28:23.394Z,6.48
2018-06-13T01:29:23.459Z,6.96
2018-06-13T01:30:23.636Z,7.15
2018-06-13T01:31:23.626Z,7.43
2018-06-13T01:32:23.367Z,8.39
2018-06-13T01:33:23.358Z,10.49
2018-06-13T01:34:23.611Z,11.16
2018-06-13T01:35:23.600Z,11.25
2018-06-13T01:36:23.597Z,15.64
2018-06-13T01:37:23.587Z,16.97
2018-06-13T01:38:23.322Z,17.45
2018-06-13T01:39:23.572Z,18.12
2018-06-13T01:40:23.311Z,18.79
2018-06-13T01:41:23.559Z,18.5
2018-06-13T01:42:23.296Z,17.93
2018-06-13T01:43:23.546Z,16.5
2018-06-13T01:44:23.542Z,14.87
2018-06-13T01:45:23.274Z,13.82
2018-06-13T01:46:23.527Z,12.01
2018-06-13T01:47:23.515Z,10.77
2018-06-13T01:48:23.251Z,10.11
2018-06-13T01:49:23.544Z,10.3
2018-06-13T01:50:23.235Z,10.68
2018-06-13T01:51:23.486Z,13.54
2018-06-13T01:52:23.223Z,14.87
2018-06-13T01:53:23.214Z,16.11
2018-06-13T01:54:23.463Z,15.35
2018-06-13T01:55:23.453Z,14.5
2018-06-13T01:56:23.449Z,14.01
2018-06-13T01:57:23.440Z,13.82
2018-06-13T01:58:23.432Z,14.3
2018-06-13T01:59:23.427Z,15.35
2018-06-13T02:00:23.418Z,16.78
2018-06-13T02:01:23.413Z,17.45
2018-06-13T02:02:23.404Z,17.74
2018-06-13T02:03:23.393Z,19.17
2018-06-13T02:04:23.388Z,20.03
2018-06-13T02:05:23.125Z,20.79
2018-06-13T02:06:23.382Z,20.79
2018-06-13T02:07:23.110Z,20.98
2018-06-13T02:08:23.370Z,22.89
2018-06-13T02:09:23.355Z,23.36
2018-06-13T02:10:23.343Z,24.03
2018-06-13T02:11:23.333Z,24.98
2018-06-13T02:12:23.329Z,26.89
2018-06-13T02:13:23.062Z,27.84
2018-06-13T02:14:23.056Z,27.37
2018-06-13T02:15:23.311Z,27.47
2018-06-13T02:16:23.298Z,26.7
2018-06-13T02:17:23.036Z,26.31
2018-06-13T02:18:23.283Z,25.65
2018-06-13T02:19:23.275Z,25.73
2018-06-13T02:20:23.267Z,26.88
2018-06-13T02:21:23.257Z,26.79
2018-06-13T02:22:23.252Z,26.61
2018-06-13T02:23:23.249Z,26.7
2018-06-13T02:24:23.235Z,26.12
2018-06-13T02:25:23.231Z,25.07
2018-06-13T02:26:23.226Z,24.3
2018-06-13T02:27:23.025Z,23.08
2018-06-13T02:28:23.207Z,21.44
2018-06-13T02:29:23.202Z,20.3
2018-06-13T02:30:23.195Z,18.79
2018-06-13T02:31:23.186Z,18.98
2018-06-13T02:32:23.180Z,18.5
2018-06-13T02:33:23.176Z,18.4
2018-06-13T02:34:23.165Z,18.68
2018-06-13T02:35:23.156Z,17.82
2018-06-13T02:36:23.147Z,17.93
2018-06-13T02:37:23.136Z,18.5
2018-06-13T02:38:23.130Z,20.98
2018-06-13T02:39:23.126Z,23.73
2018-06-13T02:40:23.117Z,26.61
2018-06-13T02:41:23.110Z,28.51
2018-06-13T02:42:23.100Z,28.32
2018-06-13T02:43:23.096Z,27.47
2018-06-13T02:44:23.084Z,26.51
2018-06-13T02:45:22.819Z,32.14
2018-06-13T02:46:23.071Z,33.18
2018-06-13T02:47:23.062Z,33.93
2018-06-13T02:48:23.054Z,34.14
2018-06-13T02:49:23.044Z,35.08
2018-06-13T02:50:23.039Z,36.05
2018-06-13T02:51:23.029Z,38.12
2018-06-13T02:52:23.022Z,39.19
2018-06-13T02:53:23.025Z,39.75
2018-06-13T02:54:22.749Z,40.41
2018-06-13T02:55:22.741Z,38.6
2018-06-13T02:56:22.734Z,37.17
2018-06-13T02:57:22.723Z,35.17
2018-06-13T02:58:22.983Z,33.93
2018-06-13T02:59:22.968Z,33.93
2018-06-13T03:00:22.701Z,34.12
2018-06-13T03:01:22.954Z,39.56
2018-06-13T03:02:22.944Z,39.27
2018-06-13T03:03:22.687Z,38.6
2018-06-13T03:04:22.673Z,37.55
2018-06-13T03:05:22.923Z,36.03
2018-06-13T03:06:22.910Z,34.98
2018-06-13T03:07:22.906Z,34.5
2018-06-13T03:08:22.898Z,34.31
2018-06-13T03:09:22.894Z,34.79
2018-06-13T03:10:22.881Z,34.31
2018-06-13T03:11:22.878Z,35.27
2018-06-13T03:12:22.862Z,35.08
2018-06-13T03:13:22.859Z,34.88
2018-06-13T03:14:22.850Z,34.31
2018-06-13T03:15:22.590Z,36.69
2018-06-13T03:16:22.842Z,36.79
2018-06-13T03:17:22.573Z,37.65
2018-06-13T03:18:22.816Z,38.12
2018-06-13T03:19:22.823Z,36.88
2018-06-13T03:20:22.542Z,35.17
2018-06-13T03:21:22.798Z,34.88
2018-06-13T03:22:22.525Z,35.64
2018-06-13T03:23:22.775Z,37.55
2018-06-13T03:24:22.773Z,37.84
2018-06-13T03:25:22.503Z,37.36
2018-06-13T03:26:22.756Z,36.6
2018-06-13T03:27:22.752Z,34.88
2018-06-13T03:28:22.738Z,34.6
2018-06-13T03:29:22.735Z,33.93
2018-06-13T03:30:22.732Z,32.21
2018-06-13T03:31:22.714Z,30.69
2018-06-13T03:32:22.702Z,31.07
2018-06-13T03:33:22.697Z,32.69
2018-06-13T03:34:22.688Z,33.64
2018-06-13T03:35:22.680Z,33.84
2018-06-13T03:36:22.676Z,32.79
2018-06-13T03:37:22.661Z,32.5
2018-06-13T03:38:22.658Z,33.55
2018-06-13T03:39:22.648Z,34.69
2018-06-13T03:40:22.382Z,36.88
2018-06-13T03:41:22.631Z,37.17
2018-06-13T03:42:22.367Z,36.98
2018-06-13T03:43:22.616Z,37.08
2018-06-13T03:44:22.652Z,37.93
2018-06-13T03:45:22.600Z,39.46
2018-06-13T03:46:22.596Z,38.41
2018-06-13T03:47:22.582Z,37.65
2018-06-13T03:48:22.580Z,37.08
2018-06-13T03:49:22.308Z,36.41
2018-06-13T03:50:22.566Z,37.65
2018-06-13T03:51:22.550Z,38.41
2018-06-13T03:52:22.542Z,38.03
2018-06-13T03:53:22.535Z,36.12
2018-06-13T03:54:22.526Z,36.51
2018-06-13T03:55:22.517Z,36.12
2018-06-13T03:56:22.255Z,36.03
2018-06-13T03:57:22.505Z,35.93
2018-06-13T03:58:22.237Z,39.17
2018-06-13T03:59:22.230Z,45.84
2018-06-13T04:00:22.475Z,48.13
2018-06-13T04:01:22.469Z,51.37
2018-06-13T04:02:22.460Z,51.95
2018-06-13T04:03:22.196Z,51.18
2018-06-13T04:04:22.445Z,49.76
2018-06-13T04:05:22.434Z,48.13
2018-06-13T04:06:22.429Z,46.51
2018-06-13T04:07:22.422Z,46.61
2018-06-13T04:08:22.412Z,47.47
2018-06-13T04:09:22.407Z,46.99
2018-06-13T04:10:22.399Z,47.56
2018-06-13T04:11:22.399Z,45.84
2018-06-13T04:12:22.382Z,45.37
2018-06-13T04:13:22.372Z,46.04
2018-06-13T04:14:22.362Z,49.47
2018-06-13T04:15:22.356Z,48.04
2018-06-13T04:16:22.344Z,49.08
2018-06-13T04:17:22.389Z,51.37
2018-06-13T04:18:22.332Z,52.9
2018-06-13T04:19:22.325Z,53.09
2018-06-13T04:20:22.316Z,52.9
2018-06-13T04:21:22.312Z,54.24
2018-06-13T04:22:22.369Z,53.66
2018-06-13T04:23:22.290Z,52.71
2018-06-13T04:24:22.282Z,50.42
2018-06-13T04:25:22.319Z,48.04
2018-06-13T04:26:22.269Z,45.84
2018-06-13T04:27:22.260Z,48.61
2018-06-13T04:28:22.254Z,49.66
2018-06-13T04:29:22.244Z,50.52
2018-06-13T04:30:22.309Z,53.47
2018-06-13T04:31:21.969Z,54.24
2018-06-13T04:32:21.959Z,54.9
2018-06-13T04:33:22.209Z,53
2018-06-13T04:34:22.206Z,53.95
2018-06-13T04:35:21.937Z,53.76
2018-06-13T04:36:21.927Z,57.86
2018-06-13T04:37:21.918Z,59
2018-06-13T04:38:22.169Z,58.33
2018-06-13T04:39:22.163Z,55.76
2018-06-13T04:40:22.153Z,53
2018-06-13T04:41:22.146Z,54.8
2018-06-13T04:42:22.135Z,58.04
2018-06-13T04:43:22.141Z,58.33
2018-06-13T04:44:21.865Z,59.19
2018-06-13T04:45:21.856Z,59
2018-06-13T04:46:21.847Z,60.24
2018-06-13T04:47:22.099Z,65.86
2018-06-13T04:48:22.091Z,64.24
2018-06-13T04:49:22.077Z,63.86
2018-06-13T04:50:21.816Z,65.29
2018-06-13T04:51:22.066Z,66.53
2018-06-13T04:52:22.054Z,65.2
2018-06-13T04:53:22.046Z,62.81
2018-06-13T04:54:22.041Z,66.53
2018-06-13T04:55:22.035Z,67.77
2018-06-13T04:56:22.026Z,69.29
2018-06-13T04:57:21.758Z,71.58
2018-06-13T04:58:22.116Z,68.44
2018-06-13T04:59:21.998Z,67.1
2018-06-13T05:00:21.734Z,68.15
2018-06-13T05:01:21.984Z,68.53
2018-06-13T05:02:21.714Z,72.72
2018-06-13T05:03:21.709Z,75.4
2018-06-13T05:04:21.959Z,72.63
2018-06-13T05:05:21.949Z,69.48
2018-06-13T05:06:21.940Z,70.15
2018-06-13T05:07:21.937Z,68.15
2018-06-13T05:08:21.926Z,69.48
2018-06-13T05:09:21.915Z,69.39
2018-06-13T05:10:21.906Z,72.63
2018-06-13T05:11:21.644Z,75.3
2018-06-13T05:12:21.636Z,75.59
2018-06-13T05:13:21.628Z,73.58
2018-06-13T05:14:21.622Z,77.2
2018-06-13T05:15:21.609Z,74.35
2018-06-13T05:16:21.870Z,79.11
2018-06-13T05:17:21.851Z,81.4
2018-06-13T05:18:21.841Z,79.11
2018-06-13T05:19:21.837Z,75.2
2018-06-13T05:20:21.826Z,73.68
2018-06-13T05:21:21.825Z,72.86
2018-06-13T05:22:21.808Z,75.91
2018-06-13T05:23:21.802Z,80.39
2018-06-13T05:24:21.798Z,79.35
2018-06-13T05:25:21.529Z,78.01
2018-06-13T05:26:21.780Z,81.06
2018-06-13T05:27:21.777Z,80.39
2018-06-13T05:28:21.762Z,80.39
2018-06-13T05:29:21.753Z,83.64
2018-06-13T05:30:21.489Z,81.15
2018-06-13T05:31:21.737Z,80.39
2018-06-13T05:32:21.730Z,85.06
2018-06-13T05:33:21.721Z,89.74
2018-06-13T05:34:21.739Z,86.88
2018-06-13T05:35:21.448Z,85.25
2018-06-13T05:36:21.700Z,87.83
2018-06-13T05:37:21.434Z,86.78
2018-06-13T05:38:21.687Z,83.73
2018-06-13T05:39:21.676Z,82.68
2018-06-13T05:40:21.676Z,87.26
2018-06-13T05:41:21.661Z,86.21
2018-06-13T05:42:21.394Z,90.41
2018-06-13T05:43:21.389Z,87.83
2018-06-13T05:44:21.647Z,85.06
2018-06-13T05:45:21.629Z,86.21
2018-06-13T05:46:21.628Z,85.45
2018-06-13T05:47:21.613Z,84.97
2018-06-13T05:48:21.350Z,84.2
2018-06-13T05:49:21.600Z,86.69
2018-06-13T05:50:21.591Z,87.16
2018-06-13T05:51:21.326Z,86.98
2018-06-13T05:52:21.319Z,89.83
2018-06-13T05:53:21.567Z,87.16
2018-06-13T05:54:21.569Z,85.16
2018-06-13T05:55:21.296Z,81.82
2018-06-13T05:56:21.290Z,83.54
2018-06-13T05:57:21.542Z,85.45
2018-06-13T05:58:21.530Z,87.07
2018-06-13T05:59:21.264Z,83.92
2018-06-13T06:00:21.515Z,80.39
2018-06-13T06:01:21.559Z,79.44
2018-06-13T06:02:21.508Z,84.2
2018-06-13T06:03:21.497Z,86.3
2018-06-13T06:04:21.484Z,90.12
2018-06-13T06:05:21.476Z,86.02
2018-06-13T06:06:21.467Z,90.69
2018-06-13T06:07:21.205Z,90.79
2018-06-13T06:08:21.453Z,90.88
2018-06-13T06:09:21.187Z,90.79
2018-06-13T06:10:21.741Z,90.12
2018-06-13T06:11:21.435Z,90.93
2018-06-13T06:12:21.423Z,88.73
2018-06-13T06:13:21.416Z,92.74
2018-06-13T06:14:21.410Z,92.55
2018-06-13T06:15:21.403Z,95.32
2018-06-13T06:16:21.137Z,97.71
2018-06-13T06:17:21.386Z,94.65
2018-06-13T06:18:21.492Z,94.17
2018-06-13T06:19:21.370Z,92.26
2018-06-13T06:20:21.364Z,92.74
2018-06-13T06:21:21.104Z,94.74
2018-06-13T06:22:21.348Z,96.17
2018-06-13T06:23:21.343Z,95.22
2018-06-13T06:24:21.077Z,96.75
2018-06-13T06:25:21.067Z,97.03
2018-06-13T06:26:21.318Z,95.98
2018-06-13T06:27:21.317Z,94.84
2018-06-13T06:28:21.307Z,95.98
2018-06-13T06:29:21.039Z,99.42
2018-06-13T06:30:21.289Z,97.13
2018-06-13T06:31:21.282Z,94.27
2018-06-13T06:32:21.274Z,94.84
2018-06-13T06:33:21.265Z,94.84
2018-06-13T06:34:21.001Z,92.26
2018-06-13T06:35:20.993Z,93.88
2018-06-13T06:36:21.249Z,94.17
2018-06-13T06:37:20.981Z,97.61
2018-06-13T06:38:21.229Z,95.51
2018-06-13T06:39:20.967Z,97.13
2018-06-13T06:40:21.214Z,98.56
2018-06-13T06:41:20.952Z,98.85
2018-06-13T06:42:21.199Z,97.61
2018-06-13T06:43:21.193Z,98.37
2018-06-13T06:44:20.929Z,96.46
2018-06-13T06:45:21.185Z,94.65
2018-06-13T06:46:21.172Z,94.07
2018-06-13T06:47:21.168Z,92.46
2018-06-13T06:48:21.159Z,93.12
2018-06-13T06:49:21.151Z,96.08
2018-06-13T06:50:21.151Z,97.71
2018-06-13T06:51:21.137Z,98.47
2018-06-13T06:52:21.131Z,98.47
2018-06-13T06:53:21.137Z,98.66
2018-06-13T06:54:21.124Z,98.56
2018-06-13T06:55:20.852Z,95.32
2018-06-13T06:56:21.105Z,94.93
2018-06-13T06:57:21.093Z,94.07
2018-06-13T06:58:21.084Z,95.51
2018-06-13T06:59:21.078Z,98.18
2018-06-13T07:00:21.073Z,97.61
2018-06-13T07:01:21.062Z,99.04
2018-06-13T07:02:21.056Z,97.71
2018-06-13T07:03:21.048Z,95.98
2018-06-13T07:04:20.786Z,97.89
2018-06-13T07:05:21.033Z,94.46
2018-06-13T07:06:21.026Z,93.7
2018-06-13T07:07:20.765Z,93.41
2018-06-13T07:08:21.011Z,94.36
2018-06-13T07:09:21.009Z,92.55
2018-06-13T07:10:20.994Z,91.21
2018-06-13T07:11:20.989Z,91.12
2018-06-13T07:12:20.990Z,97.13
2018-06-13T07:13:20.976Z,98.27
2018-06-13T07:14:20.966Z,98.47
2018-06-13T07:15:20.965Z,96.37
2018-06-13T07:16:20.954Z,97.47
2018-06-13T07:17:20.944Z,96.94
2018-06-13T07:18:20.939Z,96.84
2018-06-13T07:19:20.974Z,95.27
2018-06-13T07:20:20.932Z,95.75
2018-06-13T07:21:20.921Z,98.9
2018-06-13T07:22:20.909Z,97.56
2018-06-13T07:23:20.903Z,98.13
2018-06-13T07:24:20.900Z,99.85
2018-06-13T07:25:20.890Z,98.23
2018-06-13T07:26:20.883Z,97.75
2018-06-13T07:27:20.873Z,98.32
2018-06-13T07:28:20.609Z,99.99
2018-06-13T07:29:20.858Z,98.32
2018-06-13T07:30:20.852Z,98.32
2018-06-13T07:31:20.848Z,98.8
2018-06-13T07:32:20.837Z,98.32
2018-06-13T07:33:20.577Z,99.99
2018-06-13T07:34:20.823Z,99.99
2018-06-13T07:35:20.815Z,99.99
2018-06-13T07:36:20.554Z,99.99
2018-06-13T07:37:20.810Z,99.99
2018-06-13T07:38:20.801Z,99.99
2018-06-13T07:39:20.796Z,99.99
2018-06-13T07:40:20.790Z,99.99
2018-06-13T07:41:20.790Z,99.99
2018-06-13T07:42:20.516Z,99.99
2018-06-13T07:43:20.766Z,99.99
2018-06-13T07:44:20.504Z,99.99
2018-06-13T07:45:20.757Z,99.99
2018-06-13T07:46:20.490Z,99.99
2018-06-13T07:47:20.743Z,99.99
2018-06-13T07:48:20.738Z,99.99
2018-06-13T07:49:20.727Z,99.99
2018-06-13T07:50:20.727Z,99.99
2018-06-13T07:51:20.459Z,99.99
2018-06-13T07:52:20.713Z,99.99
2018-06-13T07:53:20.452Z,99.99
2018-06-13T07:54:20.703Z,99.99
2018-06-13T07:55:20.692Z,99.99
2018-06-13T07:56:20.425Z,98.47
2018-06-13T07:57:20.679Z,95.65
2018-06-13T07:58:20.672Z,94.31
2018-06-13T07:59:20.409Z,94.31
2018-06-13T08:00:20.659Z,93.74
2018-06-13T08:01:20.648Z,94.89
2018-06-13T08:02:20.808Z,95.36
2018-06-13T08:03:20.641Z,96.13
2018-06-13T08:04:20.630Z,94.89
2018-06-13T08:05:20.624Z,92.02
2018-06-13T08:06:20.617Z,91.45
2018-06-13T08:07:20.611Z,95.36
2018-06-13T08:08:20.765Z,93.74
2018-06-13T08:09:20.599Z,93.36
2018-06-13T08:10:20.589Z,91.36
2018-06-13T08:11:20.326Z,93.36
2018-06-13T08:12:20.577Z,94.7
2018-06-13T08:13:20.571Z,93.74
2018-06-13T08:14:20.565Z,95.17
2018-06-13T08:15:20.558Z,94.36
2018-06-13T08:16:20.548Z,92.36
2018-06-13T08:17:20.286Z,91.21
2018-06-13T08:18:20.537Z,93.7
2018-06-13T08:19:20.532Z,95.98
2018-06-13T08:20:20.526Z,95.12
2018-06-13T08:21:20.516Z,97.8
2018-06-13T08:22:20.509Z,97.22
2018-06-13T08:23:20.501Z,97.89
2018-06-13T08:24:20.499Z,94.84
2018-06-13T08:25:20.491Z,99.42
2018-06-13T08:26:20.488Z,99.99
2018-06-13T08:27:20.474Z,98.27
2018-06-13T08:28:20.214Z,99.99
2018-06-13T08:29:20.459Z,99.99
2018-06-13T08:30:20.459Z,99.99
2018-06-13T08:31:20.188Z,99.52
2018-06-13T08:32:20.451Z,99.32
2018-06-13T08:33:20.436Z,99.52
2018-06-13T08:34:20.427Z,99.9
2018-06-13T08:35:20.163Z,99.42
2018-06-13T08:36:20.412Z,98.56
2018-06-13T08:37:20.407Z,98.66
2018-06-13T08:38:20.399Z,99.42
2018-06-13T08:39:20.393Z,97.61
2018-06-13T08:40:20.384Z,96.17
2018-06-13T08:41:20.122Z,96.56
2018-06-13T08:42:20.374Z,96.08
2018-06-13T08:43:20.106Z,96.08
2018-06-13T08:44:20.355Z,96.75
2018-06-13T08:45:20.355Z,94.93
2018-06-13T08:46:20.342Z,95.32
2018-06-13T08:47:20.338Z,96.08
2018-06-13T08:48:20.327Z,94.74
2018-06-13T08:49:20.319Z,94.65
2018-06-13T08:50:20.318Z,93.31
2018-06-13T08:51:20.309Z,94.56
2018-06-13T08:52:20.303Z,95.22
2018-06-13T08:53:20.035Z,94.46
2018-06-13T08:54:20.282Z,94.17
2018-06-13T08:55:20.277Z,92.26
2018-06-13T08:56:20.270Z,91.88
2018-06-13T08:57:20.261Z,93.88
2018-06-13T08:58:20.255Z,94.17
2018-06-13T08:59:20.246Z,95.98
2018-06-13T09:00:20.240Z,95.41
2018-06-13T09:01:19.974Z,96.56
2018-06-13T09:02:20.223Z,96.37
2018-06-13T09:03:20.315Z,95.03
2018-06-13T09:04:20.205Z,94.17
2018-06-13T09:05:20.203Z,95.27
2018-06-13T09:06:20.208Z,97.13
2018-06-13T09:07:20.184Z,98.66
2018-06-13T09:08:20.179Z,98.37
2018-06-13T09:09:20.170Z,99.56
2018-06-13T09:10:19.906Z,99.99
2018-06-13T09:11:20.158Z,99.18
2018-06-13T09:12:20.151Z,99.37
2018-06-13T09:13:20.141Z,99.18
2018-06-13T09:14:20.134Z,99.37
2018-06-13T09:15:20.129Z,98.7
2018-06-13T09:16:20.119Z,98.32
2018-06-13T09:17:20.111Z,96.41
2018-06-13T09:18:20.116Z,96.8
2018-06-13T09:19:20.095Z,97.66
2018-06-13T09:20:19.834Z,99.8
2018-06-13T09:21:20.081Z,99.99
2018-06-13T09:22:20.097Z,99.99
2018-06-13T09:23:19.809Z,99.61
2018-06-13T09:24:19.802Z,98.56
2018-06-13T09:25:20.053Z,99.99
2018-06-13T09:26:20.050Z,99.99
2018-06-13T09:27:20.041Z,99.99
2018-06-13T09:28:20.030Z,99.99
2018-06-13T09:29:20.025Z,99.99
2018-06-13T09:30:20.024Z,99.99
2018-06-13T09:31:20.088Z,99.99
2018-06-13T09:32:20.004Z,99.99
2018-06-13T09:33:19.993Z,99.99
2018-06-13T09:34:19.989Z,99.99
2018-06-13T09:35:19.721Z,99.99
2018-06-13T09:36:19.714Z,99.99
2018-06-13T09:37:20.047Z,99.99
2018-06-13T09:38:19.959Z,99.99
2018-06-13T09:39:19.952Z,99.99
2018-06-13T09:40:19.942Z,99.99
2018-06-13T09:41:19.935Z,99.99
2018-06-13T09:42:19.944Z,99.99
2018-06-13T09:43:19.924Z,99.99
2018-06-13T09:44:19.925Z,99.99
2018-06-13T09:45:19.915Z,99.99
2018-06-13T09:46:19.906Z,99.99
2018-06-13T09:47:26.004Z,99.99
2018-06-13T09:48:19.902Z,99.99
2018-06-13T09:49:19.896Z,99.99
2018-06-13T09:50:19.888Z,99.99
2018-06-13T09:51:19.879Z,99.99
2018-06-13T09:52:19.610Z,99.99
2018-06-13T09:53:19.862Z,99.99
2018-06-13T09:54:19.860Z,99.99
2018-06-13T09:55:19.848Z,99.99
2018-06-13T09:56:19.843Z,99.99
2018-06-13T09:57:19.836Z,99.99
2018-06-13T09:58:19.828Z,99.99
2018-06-13T09:59:19.823Z,99.99
2018-06-13T10:00:19.561Z,99.99
2018-06-13T10:01:19.555Z,99.99
2018-06-13T10:02:19.809Z,99.99
2018-06-13T10:03:19.799Z,99.99
2018-06-13T10:04:19.534Z,99.99
2018-06-13T10:05:19.529Z,99.99
2018-06-13T10:06:19.779Z,99.99
2018-06-13T10:07:19.784Z,99.99
2018-06-13T10:08:19.776Z,99.99
2018-06-13T10:09:19.758Z,99.99
2018-06-13T10:10:19.498Z,99.99
2018-06-13T10:11:19.976Z,99.99
2018-06-13T10:12:19.741Z,99.99
2018-06-13T10:13:19.733Z,99.99
2018-06-13T10:14:19.729Z,99.99
2018-06-13T10:15:19.463Z,99.99
2018-06-13T10:16:19.458Z,99.99
2018-06-13T10:17:19.451Z,99.99
2018-06-13T10:18:19.700Z,99.28
2018-06-13T10:19:19.695Z,99.99
2018-06-13T10:20:19.429Z,98.03
2018-06-13T10:21:19.679Z,98.03
2018-06-13T10:22:19.778Z,98.52
2018-06-13T10:23:19.673Z,98.99
2018-06-13T10:24:19.662Z,99.85
2018-06-13T10:25:19.656Z,99.99
2018-06-13T10:26:19.647Z,99.99
2018-06-13T10:27:19.383Z,99.99
2018-06-13T10:28:19.633Z,99.99
2018-06-13T10:29:19.368Z,99.99
2018-06-13T10:30:19.618Z,99.99
2018-06-13T10:31:19.608Z,99.99
2018-06-13T10:32:19.604Z,99.99
2018-06-13T10:33:19.606Z,99.99
2018-06-13T10:34:19.720Z,99.99
2018-06-13T10:35:19.585Z,99.99
2018-06-13T10:36:19.588Z,99.99
2018-06-13T10:37:19.317Z,99.99
2018-06-13T10:38:19.566Z,99.99
2018-06-13T10:39:19.564Z,99.99
2018-06-13T10:40:19.298Z,99.99
2018-06-13T10:41:19.291Z,99.99
2018-06-13T10:42:19.544Z,99.99
2018-06-13T10:43:19.540Z,99.99
2018-06-13T10:44:19.533Z,99.99
2018-06-13T10:45:19.267Z,99.99
2018-06-13T10:46:19.522Z,99.99
2018-06-13T10:47:19.515Z,99.99
2018-06-13T10:48:19.510Z,99.99
2018-06-13T10:49:19.242Z,99.99
2018-06-13T10:50:19.494Z,99.99
2018-06-13T10:51:19.493Z,99.99
2018-06-13T10:52:19.492Z,99.99
2018-06-13T10:53:19.474Z,99.99
2018-06-13T10:54:19.212Z,99.99
2018-06-13T10:55:19.465Z,99.99
2018-06-13T10:56:19.203Z,99.99
2018-06-13T10:57:19.198Z,99.99
2018-06-13T10:58:19.449Z,99.99
2018-06-13T10:59:19.444Z,99.99
2018-06-13T11:00:19.180Z,99.99
2018-06-13T11:01:19.433Z,99.99
2018-06-13T11:02:19.430Z,98.52
2018-06-13T11:03:19.165Z,99.29
2018-06-13T11:04:19.414Z,99.99
2018-06-13T11:05:19.412Z,99.99
2018-06-13T11:06:19.410Z,98.67
2018-06-13T11:07:19.146Z,95.6
2018-06-13T11:08:19.398Z,92.97
2018-06-13T11:09:19.394Z,90.72
2018-06-13T11:10:19.391Z,91.77
2018-06-13T11:11:19.387Z,87.55
2018-06-13T11:12:19.382Z,87.08
2018-06-13T11:13:19.376Z,88.51
2018-06-13T11:14:19.375Z,89.76
2018-06-13T11:15:19.114Z,90.72
2018-06-13T11:16:19.368Z,90.67
2018-06-13T11:17:19.360Z,92.01
2018-06-13T11:18:19.358Z,94.5
2018-06-13T11:19:19.353Z,92.78
2018-06-13T11:20:19.099Z,94.69
2018-06-13T11:21:19.349Z,95.56
2018-06-13T11:22:19.336Z,95.56
2018-06-13T11:23:19.338Z,95.75
2018-06-13T11:24:19.075Z,94.79
2018-06-13T11:25:19.328Z,95.84
2018-06-13T11:26:19.327Z,96.18
2018-06-13T11:27:19.317Z,96.66
2018-06-13T11:28:19.314Z,97.52
2018-06-13T11:29:19.051Z,97.04
2018-06-13T11:30:19.307Z,97.04
2018-06-13T11:31:19.302Z,97.61
2018-06-13T11:32:19.298Z,95.51
2018-06-13T11:33:19.039Z,97.04
2018-06-13T11:34:19.288Z,97.9
2018-06-13T11:35:19.286Z,99.62
2018-06-13T11:36:19.281Z,99.33
2018-06-13T11:37:19.273Z,99.72
2018-06-13T11:38:19.271Z,97.33
2018-06-13T11:39:19.267Z,97.61
2018-06-13T11:40:19.258Z,98.19
2018-06-13T11:41:19.298Z,97.04
2018-06-13T11:42:19.254Z,97.9
2018-06-13T11:43:19.285Z,97.09
2018-06-13T11:44:19.241Z,95.46
2018-06-13T11:45:19.242Z,93.35
2018-06-13T11:46:19.236Z,92.97
2018-06-13T11:47:19.243Z,95.56
2018-06-13T11:48:19.233Z,97.18
2018-06-13T11:49:19.225Z,96.47
2018-06-13T11:50:18.961Z,93.88
2018-06-13T11:51:19.213Z,89.28
2018-06-13T11:52:19.212Z,89.57
2018-06-13T11:53:19.209Z,91.86
2018-06-13T11:54:19.201Z,90.62
2018-06-13T11:55:19.196Z,87.94
2018-06-13T11:56:19.194Z,88.23
2018-06-13T11:57:19.196Z,90.33
2018-06-13T11:58:19.186Z,90.33
2018-06-13T11:59:19.182Z,89.9
2018-06-13T12:00:19.250Z,87.7
2018-06-13T12:01:19.175Z,87.88
2018-06-13T12:02:19.171Z,87.21
2018-06-13T12:03:19.171Z,86.01
2018-06-13T12:04:19.165Z,86.11
2018-06-13T12:05:19.159Z,83.91
2018-06-13T12:06:19.160Z,85.53
2018-06-13T12:07:19.153Z,86.21
2018-06-13T12:08:19.155Z,82.37
2018-06-13T12:09:19.150Z,81.51
2018-06-13T12:10:19.142Z,82.18
2018-06-13T12:11:19.152Z,80.83
2018-06-13T12:12:19.136Z,84.28
2018-06-13T12:13:18.874Z,86.07
2018-06-13T12:14:18.873Z,84.53
2018-06-13T12:15:19.126Z,85.93
2018-06-13T12:16:19.125Z,89.28
2018-06-13T12:17:19.132Z,90.33
2018-06-13T12:18:18.865Z,90.48
2018-06-13T12:19:19.110Z,92.49
2018-06-13T12:20:18.852Z,95.27
2018-06-13T12:21:18.847Z,95.89
2018-06-13T12:22:19.102Z,97.23
2018-06-13T12:23:18.838Z,97.9
2018-06-13T12:24:19.095Z,98.52
2018-06-13T12:25:19.086Z,99.38
2018-06-13T12:26:19.086Z,99.99
2018-06-13T12:27:19.081Z,99.99
2018-06-13T12:28:19.078Z,99.99
2018-06-13T12:29:19.077Z,99.99
2018-06-13T12:30:19.069Z,99.99
2018-06-13T12:31:19.058Z,99.99
2018-06-13T12:32:18.798Z,99.99
2018-06-13T12:33:18.793Z,99.99
2018-06-13T12:34:18.831Z,99.99
2018-06-13T12:35:19.039Z,99.99
2018-06-13T12:36:18.779Z,99.99
2018-06-13T12:37:19.039Z,99.99
2018-06-13T12:38:19.026Z,99.99
2018-06-13T12:39:19.018Z,99.99
2018-06-13T12:40:18.785Z,99.99
2018-06-13T12:41:18.750Z,99.99
2018-06-13T12:42:19.002Z,99.99
2018-06-13T12:43:19.000Z,99.99
2018-06-13T12:44:18.991Z,99.99
2018-06-13T12:45:18.987Z,99.99
2018-06-13T12:46:18.980Z,99.99
2018-06-13T12:47:18.975Z,99.99
2018-06-13T12:48:18.969Z,99.99
2018-06-13T12:49:18.964Z,99.99
2018-06-13T12:50:18.954Z,99.99
2018-06-13T12:51:18.950Z,99.99
2018-06-13T12:52:18.689Z,99.99
2018-06-13T12:53:18.935Z,99.99
2018-06-13T12:54:18.935Z,99.99
2018-06-13T12:55:18.669Z,99.99
2018-06-13T12:56:18.920Z,99.99
2018-06-13T12:57:18.913Z,99.99
2018-06-13T12:58:18.650Z,99.99